This is the latest recevied weather packets stored in our database for station/object DB8NZ-11. If no packets are shown the sender has not sent any weather packets the latest 10 day(s).
| Time | Temp. | Humidity | Pressure | Rain* | Wind** | Luminosity | Snow |
|---|---|---|---|---|---|---|---|
| 1777807628 | 30.56° C | 22% | 1019.1 hPa | - | - | - | - |
| 1777806728 | 30° C | 23% | 1019.3 hPa | - | - | - | - |
| 1777805828 | 30° C | 24% | 1019.4 hPa | - | - | - | - |
| 1777804928 | 29.44° C | 26% | 1019.6 hPa | - | - | - | - |
| 1777804028 | 29.44° C | 24% | 1019.7 hPa | - | - | - | - |
| 1777803128 | 30° C | 22% | 1019.9 hPa | - | - | - | - |
| 1777802228 | 29.44° C | 24% | 1020.1 hPa | - | - | - | - |
| 1777801328 | 28.89° C | 26% | 1020.3 hPa | - | - | - | - |
| 1777800428 | 27.22° C | 30% | 1020.5 hPa | - | - | - | - |
| 1777799527 | 26.11° C | 32% | 1020.6 hPa | - | - | - | - |
| 1777798627 | 25.56° C | 34% | 1020.7 hPa | - | - | - | - |
| 1777797727 | 25.56° C | 32% | 1020.9 hPa | - | - | - | - |
| 1777796827 | 25.56° C | 34% | 1020.9 hPa | - | - | - | - |
| 1777795927 | 24.44° C | 33% | 1021 hPa | - | - | - | - |
| 1777795027 | 24.44° C | 34% | 1021 hPa | - | - | - | - |
| 1777794127 | 25° C | 33% | 1020.9 hPa | - | - | - | - |
| 1777793227 | 22.78° C | 36% | 1020.9 hPa | - | - | - | - |
| 1777792327 | 18.33° C | 45% | 1021 hPa | - | - | - | - |
| 1777791427 | 16.67° C | 49% | 1021.1 hPa | - | - | - | - |
| 1777790527 | 16.11° C | 52% | 1020.9 hPa | - | - | - | - |
| 1777789627 | 15° C | 54% | 1020.9 hPa | - | - | - | - |
| 1777788726 | 14.44° C | 57% | 1020.9 hPa | - | - | - | - |
| 1777787826 | 13.89° C | 59% | 1020.8 hPa | - | - | - | - |
| 1777786926 | 12.22° C | 65% | 1020.7 hPa | - | - | - | - |
| 1777786026 | 10.56° C | 73% | 1020.8 hPa | - | - | - | - |
* Rain since midnight (hover to see other rain measurements)
** Current wind speed in m/s (hover to see current wind gust speed)